Time;durP1;ratioP1;P1;durP2;ratioP2;P2;SDS_P1;SDS_P2;PMS_P1;PMS_P2;Temp;Humidity;BMP_temperature;BMP_pressure;BME280_temperature;BME280_humidity;BME280_pressure;Samples;Min_cycle;Max_cycle;Signal;HPM_P1;HPM_P2
2023/03/15 00:01:54;;;;;;;0.50;0.50;;;8.40;76.80;10.00;95597.00;;;;5032327;28;20208;-86
2023/03/15 00:04:43;;;;;;;1.27;0.50;;;8.40;74.90;9.90;95603.00;;;;5029194;28;20201;-86
2023/03/15 00:07:31;;;;;;;1.50;0.50;;;8.30;76.10;9.90;95594.00;;;;5029936;28;20221;-85
2023/03/15 00:10:20;;;;;;;0.37;0.37;;;8.30;75.90;9.70;95603.00;;;;5030973;28;20197;-85
2023/03/15 00:13:12;;;;;;;0.73;0.40;;;8.20;74.50;9.90;95607.00;;;;5028471;28;20213;-86
2023/03/15 00:16:02;;;;;;;0.73;0.40;;;8.30;75.00;9.90;95614.00;;;;5031546;28;20323;-85
2023/03/15 00:18:51;;;;;;;0.60;0.50;;;8.30;74.40;9.70;95611.00;;;;5030160;28;20228;-86
2023/03/15 00:21:42;;;;;;;1.30;0.67;;;8.20;73.60;9.90;95616.00;;;;5029652;28;20717;-86
2023/03/15 00:24:30;;;;;;;0.93;0.53;;;8.30;73.80;9.90;95615.00;;;;5029792;28;20287;-87
2023/03/15 00:27:19;;;;;;;1.27;0.40;;;8.30;73.50;9.90;95618.00;;;;5029287;28;20217;-86
2023/03/15 00:30:11;;;;;;;1.60;0.50;;;8.30;72.10;9.90;95618.00;;;;5026760;28;20642;-86
2023/03/15 00:33:00;;;;;;;0.50;0.50;;;8.30;71.00;9.90;95619.00;;;;5029373;28;20197;-86
2023/03/15 00:35:52;;;;;;;0.77;0.67;;;8.30;70.90;10.10;95600.00;;;;5029357;28;20646;-85
2023/03/15 00:38:43;;;;;;;1.83;0.60;;;8.40;72.40;9.80;95612.00;;;;5029255;28;20240;-86
2023/03/15 00:41:31;;;;;;;1.70;0.50;;;8.40;72.60;9.80;95616.00;;;;5029107;28;20201;-88
2023/03/15 00:44:20;;;;;;;0.40;0.40;;;8.30;74.60;9.80;95625.00;;;;5027984;28;20213;-87
2023/03/15 00:47:11;;;;;;;2.37;0.90;;;8.30;73.00;9.80;95628.00;;;;5026971;28;20642;-86
2023/03/15 00:50:00;;;;;;;1.50;0.50;;;8.30;71.20;9.80;95625.00;;;;5030696;28;20193;-85
2023/03/15 00:52:49;;;;;;;0.60;0.40;;;8.20;70.50;9.90;95641.00;;;;5030138;28;20662;-87
2023/03/15 00:55:38;;;;;;;0.87;0.37;;;8.30;71.50;9.90;95639.00;;;;5029460;28;20626;-85
2023/03/15 00:58:27;;;;;;;0.50;0.50;;;8.30;71.80;9.50;95635.00;;;;5029603;28;20292;-86
2023/03/15 01:01:18;;;;;;;0.43;0.37;;;8.30;69.80;10.00;95641.00;;;;5032307;28;20200;-86
2023/03/15 01:04:08;;;;;;;0.83;0.50;;;8.30;70.90;9.80;95644.00;;;;5031628;28;20216;-86
2023/03/15 01:06:57;;;;;;;0.30;0.30;;;8.30;73.30;9.90;95657.00;;;;5031978;28;20710;-85
2023/03/15 01:09:46;;;;;;;0.37;0.37;;;8.30;72.60;9.90;95665.00;;;;5031626;28;20201;-86
2023/03/15 01:12:36;;;;;;;0.63;0.30;;;8.30;71.70;9.80;95664.00;;;;5029637;28;20197;-86
2023/03/15 01:15:25;;;;;;;3.70;0.40;;;8.30;72.20;9.80;95663.00;;;;5032126;28;20642;-85
2023/03/15 01:18:13;;;;;;;5.27;0.60;;;8.20;72.50;9.70;95654.00;;;;5029402;28;20221;-88
2023/03/15 01:21:07;;;;;;;0.37;0.37;;;8.20;72.10;9.60;95664.00;;;;5024268;28;20228;-87
2023/03/15 01:23:55;;;;;;;1.50;0.53;;;8.20;72.00;9.70;95672.00;;;;5029052;28;20202;-85
2023/03/15 01:26:44;;;;;;;0.73;0.50;;;8.20;70.80;9.80;95664.00;;;;5029395;28;20561;-85
2023/03/15 01:29:33;;;;;;;0.47;0.47;;;8.20;71.60;9.80;95678.00;;;;5030397;28;20197;-85
2023/03/15 01:32:22;;;;;;;0.47;0.47;;;8.20;72.10;9.80;95665.00;;;;5029601;28;20201;-86
2023/03/15 01:35:11;;;;;;;0.30;0.30;;;8.20;73.00;9.50;95665.00;;;;5026438;28;20225;-85
2023/03/15 01:38:01;;;;;;;0.40;0.40;;;8.10;72.90;9.60;95666.00;;;;5029258;28;20225;-86
2023/03/15 01:40:50;;;;;;;1.13;0.40;;;8.10;73.10;9.30;95658.00;;;;5026308;28;20194;-86
2023/03/15 01:43:46;;;;;;;3.03;0.60;;;8.10;71.30;9.90;95672.00;;;;5027941;28;20205;-87
2023/03/15 01:46:35;;;;;;;0.40;0.40;;;8.20;71.80;9.80;95676.00;;;;5028689;28;20208;-87
2023/03/15 01:49:27;;;;;;;1.20;0.50;;;8.20;72.90;9.60;95674.00;;;;5028613;28;20324;-86
2023/03/15 01:52:20;;;;;;;1.73;0.77;;;8.20;72.30;9.70;95671.00;;;;5027083;28;20231;-87
2023/03/15 01:55:13;;;;;;;0.50;0.50;;;8.20;72.00;9.80;95675.00;;;;5028694;28;20249;-86
2023/03/15 01:58:05;;;;;;;0.40;0.40;;;8.20;72.50;9.60;95666.00;;;;5023653;28;20228;-87
2023/03/15 02:00:54;;;;;;;1.47;0.63;;;8.20;74.30;9.70;95666.00;;;;5028251;28;20259;-87
2023/03/15 02:03:47;;;;;;;0.53;0.40;;;8.10;73.40;9.70;95664.00;;;;5026069;28;20213;-86
2023/03/15 02:06:37;;;;;;;1.87;0.50;;;8.70;74.60;9.60;95672.00;;;;5028506;28;20209;-87
2023/03/15 02:09:34;;;;;;;0.70;0.60;;;8.10;75.80;9.30;95664.00;;;;5027653;28;20210;-86
2023/03/15 02:12:25;;;;;;;0.97;0.60;;;8.00;76.20;9.50;95665.00;;;;5027341;28;20655;-86
2023/03/15 02:15:16;;;;;;;0.73;0.40;;;8.00;75.10;9.20;95665.00;;;;5026567;28;20252;-90
2023/03/15 02:18:04;;;;;;;2.07;0.60;;;8.00;74.20;9.70;95667.00;;;;5024941;28;20713;-88
2023/03/15 02:21:03;;;;;;;2.90;0.60;;;8.00;74.80;9.60;95668.00;;;;5029705;28;20220;-88
2023/03/15 02:24:06;;;;;;;1.60;0.67;;;8.10;75.30;9.50;95665.00;;;;5030960;28;20236;-87
2023/03/15 02:26:57;;;;;;;1.70;0.50;;;8.10;75.60;9.50;95661.00;;;;5032514;28;20435;-87
2023/03/15 02:29:47;;;;;;;0.50;0.50;;;8.00;76.10;9.50;95661.00;;;;5031172;28;20208;-86
2023/03/15 02:32:36;;;;;;;0.40;0.40;;;8.00;76.80;9.60;95667.00;;;;5030329;28;20200;-86
2023/03/15 02:35:28;;;;;;;1.23;0.60;;;8.00;76.00;9.60;95674.00;;;;5031948;28;20221;-86
2023/03/15 02:38:17;;;;;;;0.73;0.60;;;8.10;76.10;9.70;95677.00;;;;5029679;28;20213;-86
2023/03/15 02:41:06;;;;;;;0.60;0.60;;;8.10;76.40;9.50;95677.00;;;;5028351;28;20193;-85
2023/03/15 02:44:02;;;;;;;2.10;0.87;;;8.10;76.20;9.20;95663.00;;;;5037040;28;20202;-92
2023/03/15 02:46:55;;;;;;;0.30;0.30;;;8.20;75.40;9.80;95672.00;;;;5031543;28;20221;-87
2023/03/15 02:49:49;;;;;;;3.47;0.90;;;8.20;74.20;9.90;95682.00;;;;5030784;28;20319;-86
2023/03/15 02:52:38;;;;;;;1.07;1.03;;;8.30;74.30;9.70;95673.00;;;;5040145;28;20220;-85
2023/03/15 02:55:27;;;;;;;1.80;0.47;;;8.30;74.40;9.80;95680.00;;;;5032667;28;20267;-87
2023/03/15 02:58:15;;;;;;;0.20;0.20;;;8.40;74.30;9.90;95682.00;;;;5028966;28;20264;-87
2023/03/15 03:01:05;;;;;;;0.47;0.40;;;8.40;73.50;9.90;95688.00;;;;5027696;28;20193;-86
2023/03/15 03:03:55;;;;;;;0.30;0.30;;;8.40;73.40;9.90;95689.00;;;;5031641;28;20205;-87
2023/03/15 03:06:44;;;;;;;0.37;0.37;;;8.40;73.80;9.70;95682.00;;;;5031530;28;20204;-87
2023/03/15 03:09:33;;;;;;;0.83;0.43;;;8.40;72.30;9.90;95691.00;;;;5029784;28;20208;-87
2023/03/15 03:12:22;;;;;;;0.37;0.37;;;8.40;73.20;9.90;95708.00;;;;5030812;28;20204;-87
2023/03/15 03:15:11;;;;;;;1.33;0.50;;;8.40;73.30;9.90;95708.00;;;;5030456;28;20209;-88
2023/03/15 03:18:00;;;;;;;4.03;0.70;;;8.40;72.20;9.90;95709.00;;;;5030634;28;20229;-86
2023/03/15 03:20:50;;;;;;;1.00;0.60;;;8.30;71.50;9.90;95711.00;;;;5030800;28;20205;-87
2023/03/15 03:23:39;;;;;;;0.57;0.50;;;8.30;72.30;9.80;95711.00;;;;5028572;28;20197;-88
2023/03/15 03:26:31;;;;;;;1.80;0.50;;;8.30;72.50;9.50;95715.00;;;;5027523;23;20226;-74
2023/03/15 03:29:20;;;;;;;7.10;0.60;;;8.00;70.60;9.90;95719.00;;;;4982544;28;20195;-73
2023/03/15 03:32:09;;;;;;;1.77;0.50;;;8.30;71.60;9.90;95728.00;;;;4973378;28;20223;-73
2023/03/15 03:34:58;;;;;;;0.57;0.30;;;8.30;72.00;9.80;95721.00;;;;4984439;28;20199;-73
2023/03/15 03:37:48;;;;;;;0.40;0.40;;;7.30;70.80;9.80;95729.00;;;;4969882;28;20226;-73
2023/03/15 03:40:37;;;;;;;0.30;0.30;;;8.20;70.80;9.70;95739.00;;;;4972088;28;20260;-73
2023/03/15 03:43:26;;;;;;;0.67;0.30;;;8.20;71.30;9.70;95742.00;;;;4968732;28;20705;-67
2023/03/15 03:46:15;;;;;;;0.47;0.47;;;8.20;71.10;9.80;95754.00;;;;4967356;28;20219;-66
2023/03/15 03:49:03;;;;;;;3.37;0.60;;;8.20;70.80;9.80;95759.00;;;;4977441;28;20246;-67
2023/03/15 03:51:52;;;;;;;0.43;0.43;;;8.20;71.20;9.70;95768.00;;;;4967014;28;20207;-67
2023/03/15 03:54:42;;;;;;;3.63;0.50;;;8.20;70.80;9.70;95774.00;;;;4970895;28;20209;-73
2023/03/15 03:57:31;;;;;;;1.97;0.50;;;8.20;68.40;9.80;95774.00;;;;4971376;28;20223;-68
2023/03/15 04:00:20;;;;;;;0.40;0.40;;;8.20;69.60;9.90;95783.00;;;;4967786;28;20206;-69
2023/03/15 04:03:09;;;;;;;0.80;0.50;;;8.30;69.80;9.50;95772.00;;;;4972385;28;20203;-72
2023/03/15 04:06:00;;;;;;;0.43;0.43;;;8.20;69.60;9.70;95771.00;;;;4971928;28;20231;-76
2023/03/15 04:08:48;;;;;;;0.50;0.30;;;8.20;69.80;9.80;95775.00;;;;4970192;28;20196;-74
2023/03/15 04:11:41;;;;;;;1.03;0.30;;;8.20;69.90;9.60;95765.00;;;;4968677;28;20211;-73
2023/03/15 04:14:30;;;;;;;0.60;0.40;;;8.20;70.10;9.70;95770.00;;;;4967599;28;20219;-73
2023/03/15 04:17:18;;;;;;;0.33;0.33;;;8.20;70.10;9.80;95780.00;;;;4967064;28;20227;-73
2023/03/15 04:20:11;;;;;;;2.67;0.50;;;8.10;70.40;9.50;95772.00;;;;4964047;28;20686;-67
2023/03/15 04:23:01;;;;;;;0.37;0.37;;;8.10;68.90;9.80;95778.00;;;;4968475;28;20207;-69
2023/03/15 04:25:50;;;;;;;3.70;2.63;;;8.20;69.20;9.70;95775.00;;;;4974089;28;20229;-68
2023/03/15 04:28:41;;;;;;;0.60;0.60;;;8.20;69.70;9.70;95783.00;;;;4967743;28;20212;-69
2023/03/15 04:31:36;;;;;;;3.53;0.40;;;8.20;70.30;9.60;95778.00;;;;4966883;28;20211;-69
2023/03/15 04:34:27;;;;;;;2.53;0.60;;;8.10;70.60;9.60;95788.00;;;;4969609;28;20667;-68
2023/03/15 04:37:15;;;;;;;2.63;0.70;;;8.10;70.60;9.50;95793.00;;;;4967239;28;20270;-66
2023/03/15 04:40:06;;;;;;;0.30;0.30;;;8.10;70.80;9.50;95795.00;;;;4964196;28;20701;-66
2023/03/15 04:42:56;;;;;;;2.10;0.50;;;8.00;71.20;9.60;95804.00;;;;4966496;28;20211;-67
2023/03/15 04:45:46;;;;;;;0.77;0.77;;;8.00;71.00;9.60;95798.00;;;;4965666;28;20234;-66
2023/03/15 04:48:35;;;;;;;0.73;0.47;;;8.00;71.00;9.30;95795.00;;;;4967937;28;20199;-65
2023/03/15 04:51:24;;;;;;;2.03;0.30;;;8.00;70.90;9.50;95790.00;;;;4965859;28;20207;-65
2023/03/15 04:54:13;;;;;;;0.80;0.40;;;7.90;71.00;9.40;95792.00;;;;4967442;28;20211;-65
2023/03/15 04:57:02;;;;;;;0.30;0.30;;;7.90;71.60;9.50;95792.00;;;;4966869;28;20710;-65
2023/03/15 04:59:50;;;;;;;0.90;0.83;;;7.90;72.50;9.40;95805.00;;;;4966655;28;20199;-65
2023/03/15 05:02:41;;;;;;;4.23;1.63;;;7.90;72.90;9.40;95796.00;;;;4967230;28;20211;-65
2023/03/15 05:05:32;;;;;;;1.67;0.90;;;7.80;72.80;9.10;95790.00;;;;4966754;28;20216;-65
2023/03/15 05:08:21;;;;;;;3.07;2.00;;;7.70;74.20;9.20;95801.00;;;;4965656;28;20643;-65
2023/03/15 05:11:10;;;;;;;2.60;1.30;;;7.70;74.50;9.10;95803.00;;;;4965815;28;20218;-65
2023/03/15 05:13:58;;;;;;;2.23;1.70;;;7.60;75.30;9.10;95815.00;;;;4967728;28;20253;-65
2023/03/15 05:16:47;;;;;;;3.13;1.50;;;7.60;74.10;9.10;95817.00;;;;4968290;28;20246;-65
2023/03/15 05:19:37;;;;;;;2.80;0.70;;;7.60;75.00;9.00;95820.00;;;;4964262;28;20682;-65
2023/03/15 05:22:27;;;;;;;1.93;1.00;;;7.50;74.80;9.00;95823.00;;;;4965504;28;20288;-65
2023/03/15 05:25:16;;;;;;;1.33;1.00;;;7.50;75.40;9.00;95830.00;;;;4970558;28;20200;-65
2023/03/15 05:28:05;;;;;;;0.67;0.67;;;7.50;75.50;9.00;95834.00;;;;4964213;28;20237;-65
2023/03/15 05:30:54;;;;;;;3.17;0.73;;;7.50;76.80;8.80;95837.00;;;;4965561;28;20293;-68
2023/03/15 05:33:45;;;;;;;2.27;1.03;;;7.40;76.80;8.80;95836.00;;;;4965122;28;20196;-67
2023/03/15 05:36:36;;;;;;;5.03;3.13;;;7.40;76.40;9.00;95854.00;;;;4962705;28;20234;-68
2023/03/15 05:39:24;;;;;;;3.37;1.43;;;7.40;77.00;9.00;95846.00;;;;4966588;28;20207;-67
2023/03/15 05:42:13;;;;;;;2.63;1.20;;;7.40;77.50;8.90;95850.00;;;;4968162;28;20744;-67
2023/03/15 05:45:02;;;;;;;0.90;0.90;;;7.40;78.00;8.80;95858.00;;;;4981987;28;20207;-67
2023/03/15 05:47:51;;;;;;;0.73;0.70;;;7.40;77.50;9.00;95871.00;;;;4980672;28;20253;-69
2023/03/15 05:50:39;;;;;;;0.53;0.50;;;7.40;76.80;9.20;95881.00;;;;4984999;28;20215;-69
2023/03/15 05:53:29;;;;;;;1.13;0.60;;;7.50;76.90;9.10;95891.00;;;;4997813;28;20211;-68
2023/03/15 05:56:18;;;;;;;0.97;0.70;;;7.50;77.70;9.20;95890.00;;;;5009975;28;20232;-69
2023/03/15 05:59:07;;;;;;;1.70;0.57;;;7.60;77.70;9.00;95902.00;;;;4970758;28;20206;-69
2023/03/15 06:01:56;;;;;;;3.60;0.40;;;7.60;77.80;9.20;95910.00;;;;4974826;28;20858;-69
2023/03/15 06:04:44;;;;;;;0.63;0.60;;;7.60;77.80;9.40;95919.00;;;;4990535;28;20215;-68
2023/03/15 06:07:33;;;;;;;0.70;0.57;;;7.70;78.60;9.30;95916.00;;;;4970008;28;20230;-68
2023/03/15 06:10:23;;;;;;;0.40;0.40;;;7.70;79.10;9.20;95917.00;;;;4978312;28;20577;-69
2023/03/15 06:13:12;;;;;;;0.63;0.47;;;7.70;79.00;9.40;95925.00;;;;4967527;28;20693;-68
2023/03/15 06:16:02;;;;;;;0.50;0.40;;;7.70;79.10;9.50;95924.00;;;;4973650;28;20250;-68
2023/03/15 06:18:51;;;;;;;1.10;0.57;;;7.80;79.40;9.40;95929.00;;;;4990348;28;20227;-68
2023/03/15 06:21:39;;;;;;;2.40;0.40;;;7.80;79.90;9.50;95945.00;;;;4969476;28;20207;-68
2023/03/15 06:24:28;;;;;;;2.10;0.80;;;7.80;79.80;9.50;95943.00;;;;4968251;28;20211;-68
2023/03/15 06:27:20;;;;;;;0.77;0.60;;;7.90;80.30;9.50;95949.00;;;;4970955;28;20771;-68
2023/03/15 06:30:11;;;;;;;0.50;0.43;;;7.90;80.50;9.50;95956.00;;;;4968570;28;20211;-68
2023/03/15 06:32:59;;;;;;;0.43;0.40;;;8.00;81.00;9.20;95972.00;;;;4973070;28;20276;-66
2023/03/15 06:35:48;;;;;;;0.20;0.20;;;7.90;80.50;9.20;95964.00;;;;4969971;28;20635;-67
2023/03/15 06:38:37;;;;;;;1.57;0.47;;;7.80;79.90;9.40;95966.00;;;;4970073;28;20234;-67
2023/03/15 06:41:26;;;;;;;0.30;0.30;;;7.90;80.90;9.40;95972.00;;;;4968274;28;20208;-67
2023/03/15 06:44:16;;;;;;;0.40;0.40;;;7.80;80.60;9.60;95961.00;;;;4968282;28;20687;-67
2023/03/15 06:47:05;;;;;;;1.03;0.60;;;7.90;80.70;9.70;95983.00;;;;4969264;28;20239;-67
2023/03/15 06:49:54;;;;;;;0.47;0.30;;;8.00;81.10;9.50;95981.00;;;;4967315;28;20288;-67
2023/03/15 06:52:44;;;;;;;0.33;0.30;;;8.00;80.70;9.80;95988.00;;;;4966652;28;20207;-67
2023/03/15 06:55:33;;;;;;;1.17;0.37;;;8.10;81.10;9.90;96003.00;;;;4969975;28;20207;-68
2023/03/15 06:58:22;;;;;;;0.50;0.50;;;8.10;81.50;10.00;96003.00;;;;4972323;28;20713;-68
2023/03/15 07:01:15;;;;;;;0.70;0.70;;;8.10;81.60;9.80;96002.00;;;;4973325;28;20600;-67
2023/03/15 07:04:04;;;;;;;5.10;3.63;;;8.20;81.40;9.80;96007.00;;;;4966226;28;20199;-68
2023/03/15 07:06:55;;;;;;;3.43;2.53;;;8.20;81.10;9.90;96018.00;;;;4966708;28;20699;-68
2023/03/15 07:09:44;;;;;;;0.60;0.50;;;8.20;81.40;9.70;96017.00;;;;4966895;28;20208;-67
2023/03/15 07:12:33;;;;;;;0.77;0.53;;;8.20;82.10;9.90;96028.00;;;;4973959;28;20207;-67
2023/03/15 07:15:22;;;;;;;2.67;0.40;;;8.10;82.80;9.60;96019.00;;;;4970507;28;20200;-68
2023/03/15 07:18:12;;;;;;;0.50;0.50;;;8.20;81.90;9.60;96036.00;;;;4972094;28;20284;-68
2023/03/15 07:21:04;;;;;;;0.50;0.50;;;8.10;82.00;9.40;96037.00;;;;4971187;28;20596;-69
2023/03/15 07:23:52;;;;;;;2.13;1.57;;;8.10;82.20;9.60;96043.00;;;;4971268;28;20207;-68
2023/03/15 07:26:41;;;;;;;8.00;4.33;;;8.10;82.40;9.60;96045.00;;;;4972395;28;20231;-68
2023/03/15 07:29:30;;;;;;;13.70;6.07;;;8.10;83.10;9.80;96054.00;;;;4967662;28;20640;-69
2023/03/15 07:32:19;;;;;;;4.50;2.40;;;8.10;83.40;10.10;96062.00;;;;4966280;28;20204;-68
2023/03/15 07:35:10;;;;;;;3.97;0.87;;;8.20;83.40;10.10;96063.00;;;;4989561;28;20222;-68
2023/03/15 07:38:01;;;;;;;1.90;0.53;;;8.20;83.20;9.90;96076.00;;;;5063198;23;20228;-83
2023/03/15 07:40:50;;;;;;;0.60;0.60;;;8.30;83.40;10.00;96076.00;;;;5065414;28;20192;-83
2023/03/15 07:43:38;;;;;;;1.43;1.33;;;8.40;83.40;10.30;96086.00;;;;5057561;28;20205;-83
2023/03/15 07:46:27;;;;;;;2.83;0.60;;;8.40;83.40;10.30;96086.00;;;;5054067;28;20208;-83
2023/03/15 07:49:16;;;;;;;0.47;0.40;;;8.50;83.40;10.30;96089.00;;;;5054274;28;20220;-83
2023/03/15 07:52:07;;;;;;;0.40;0.40;;;8.60;83.20;10.60;96092.00;;;;5052186;28;20260;-84
2023/03/15 07:54:56;;;;;;;2.13;0.43;;;8.70;83.40;10.50;96092.00;;;;5055875;28;20235;-84
2023/03/15 07:57:45;;;;;;;0.60;0.40;;;8.70;82.80;10.60;96090.00;;;;5055133;28;20224;-83
2023/03/15 08:00:35;;;;;;;0.33;0.30;;;8.80;82.80;10.60;96091.00;;;;5054833;28;20189;-83
2023/03/15 08:03:26;;;;;;;3.33;0.47;;;8.80;82.60;10.70;96094.00;;;;5053427;28;20209;-83
2023/03/15 08:06:15;;;;;;;1.43;1.13;;;8.90;82.80;10.60;96098.00;;;;5050813;28;20240;-83
2023/03/15 08:09:05;;;;;;;0.47;0.47;;;9.00;82.50;10.50;96103.00;;;;5026305;28;20205;-84
2023/03/15 08:11:54;;;;;;;5.83;0.90;;;9.00;82.70;10.50;96107.00;;;;5034101;28;20603;-84
2023/03/15 08:14:43;;;;;;;0.30;0.30;;;9.00;82.60;10.50;96100.00;;;;5023104;28;20551;-84
2023/03/15 08:17:32;;;;;;;0.57;0.50;;;9.00;80.10;10.90;96109.00;;;;5029166;28;20197;-84
2023/03/15 08:20:21;;;;;;;0.63;0.23;;;9.00;79.90;10.80;96107.00;;;;5028038;28;20209;-84
2023/03/15 08:23:15;;;;;;;0.33;0.33;;;9.20;79.10;10.70;96124.00;;;;5031363;28;20220;-83
2023/03/15 08:26:05;;;;;;;0.30;0.30;;;9.20;78.30;10.60;96120.00;;;;5027196;28;20273;-86
2023/03/15 08:28:54;;;;;;;0.47;0.47;;;9.10;78.10;11.00;96128.00;;;;5028826;28;20689;-84
2023/03/15 08:31:43;;;;;;;0.27;0.27;;;9.20;77.30;11.10;96124.00;;;;5027457;28;20213;-84
2023/03/15 08:34:34;;;;;;;0.23;0.23;;;9.30;77.30;10.90;96125.00;;;;5030700;28;20701;-84
2023/03/15 08:37:23;;;;;;;1.40;0.67;;;9.30;76.70;11.10;96128.00;;;;5029168;28;20209;-84
2023/03/15 08:40:13;;;;;;;1.03;0.37;;;9.50;76.40;11.50;96128.00;;;;5026823;28;20702;-84
2023/03/15 08:43:03;;;;;;;0.73;0.70;;;9.60;76.10;11.60;96139.00;;;;5025485;28;20232;-84
2023/03/15 08:45:53;;;;;;;0.90;0.50;;;9.70;76.80;11.60;96144.00;;;;5027215;28;20204;-84
2023/03/15 08:48:48;;;;;;;1.60;0.30;;;9.80;76.50;9.50;96122.00;;;;5030667;28;20189;-89
2023/03/15 08:51:37;;;;;;;0.20;0.20;;;9.60;76.60;8.80;96118.00;;;;5031880;28;20729;-85
2023/03/15 08:54:26;;;;;;;0.20;0.20;;;9.00;76.40;9.90;96153.00;;;;5036939;28;20231;-85
2023/03/15 08:57:16;;;;;;;0.30;0.30;;;8.90;76.00;10.80;96160.00;;;;5034391;28;20674;-84
2023/03/15 09:00:09;;;;;;;0.20;0.20;;;9.00;76.40;10.40;96158.00;;;;5031634;28;20225;-84
2023/03/15 09:02:57;;;;;;;0.30;0.30;;;9.10;76.70;10.60;96166.00;;;;5016543;28;20608;-84
2023/03/15 09:05:46;;;;;;;0.77;0.30;;;9.30;76.60;10.10;96167.00;;;;5032575;28;20232;-84
2023/03/15 09:08:36;;;;;;;0.20;0.20;;;9.20;76.10;10.10;96162.00;;;;5032521;28;20202;-84
2023/03/15 09:11:25;;;;;;;0.20;0.20;;;9.20;75.10;10.90;96169.00;;;;5033329;28;20220;-84
2023/03/15 09:14:14;;;;;;;0.63;0.63;;;9.20;76.00;10.10;96183.00;;;;5026843;28;20652;-85
2023/03/15 09:17:04;;;;;;;0.20;0.20;;;9.30;75.10;10.40;96175.00;;;;5028587;28;20206;-84
2023/03/15 09:19:53;;;;;;;1.97;0.30;;;9.10;73.60;10.20;96164.00;;;;5026409;28;20282;-83
2023/03/15 09:22:42;;;;;;;0.20;0.20;;;9.00;74.90;11.20;96157.00;;;;5028636;28;20698;-85
2023/03/15 09:25:31;;;;;;;0.93;0.40;;;9.20;75.00;10.90;96177.00;;;;5031751;28;20198;-83
2023/03/15 09:28:20;;;;;;;0.20;0.20;;;9.30;73.70;10.70;96183.00;;;;5027236;28;20259;-84
2023/03/15 09:31:08;;;;;;;0.33;0.20;;;9.40;71.70;10.70;96187.00;;;;5032119;28;20201;-84
2023/03/15 09:33:59;;;;;;;0.30;0.30;;;9.50;72.60;10.70;96198.00;;;;5036627;28;20233;-86
2023/03/15 09:36:51;;;;;;;0.20;0.20;;;9.50;72.40;10.30;96181.00;;;;5028868;28;20579;-84
2023/03/15 09:39:40;;;;;;;0.20;0.20;;;9.30;72.80;11.00;96181.00;;;;5028681;28;20229;-83
2023/03/15 09:42:41;;;;;;;0.27;0.27;;;9.50;72.00;11.20;96195.00;;;;5037302;28;20208;-83
2023/03/15 09:45:54;;;;;;;0.20;0.20;;;9.70;71.70;11.70;96212.00;;;;5029342;28;20614;-84
2023/03/15 09:48:51;;;;;;;0.20;0.20;;;9.90;71.10;10.50;96200.00;;;;5023073;28;20209;-84
2023/03/15 09:51:48;;;;;;;0.20;0.20;;;9.80;70.50;10.70;96236.00;;;;5022021;28;20667;-84
2023/03/15 09:54:43;;;;;;;0.73;0.50;;;9.80;70.30;10.80;96241.00;;;;5029512;28;20232;-84
2023/03/15 09:57:41;;;;;;;0.20;0.20;;;9.70;71.90;9.90;96234.00;;;;5028996;28;20208;-86
2023/03/15 10:00:36;;;;;;;0.27;0.27;;;9.30;72.30;10.40;96228.00;;;;5028848;28;20706;-84
2023/03/15 10:03:36;;;;;;;1.93;0.27;;;9.10;72.20;10.00;96239.00;;;;5028084;28;20816;-84
2023/03/15 10:06:33;;;;;;;0.40;0.40;;;9.10;71.00;11.00;96249.00;;;;5030323;28;20570;-84
2023/03/15 10:09:31;;;;;;;0.20;0.20;;;9.20;73.70;10.30;96250.00;;;;5025545;28;20255;-85
2023/03/15 10:12:29;;;;;;;0.97;0.30;;;9.30;72.50;10.90;96254.00;;;;5029763;28;20208;-84
2023/03/15 10:15:36;;;;;;;0.27;0.20;;;9.40;75.20;11.50;96257.00;;;;5026896;28;20240;-85
2023/03/15 10:18:43;;;;;;;0.40;0.30;;;9.60;77.90;11.60;96270.00;;;;5027155;28;20205;-84
2023/03/15 10:21:42;;;;;;;0.20;0.20;;;9.80;78.70;11.60;96270.00;;;;5026789;28;20255;-84
2023/03/15 10:24:38;;;;;;;0.53;0.40;;;9.90;77.60;12.20;96269.00;;;;5030616;28;20247;-84
2023/03/15 10:27:35;;;;;;;0.77;0.77;;;10.00;77.80;11.40;96256.00;;;;5026699;28;20220;-84
2023/03/15 10:30:26;;;;;;;1.10;0.70;;;10.10;77.60;11.40;96273.00;;;;5026997;28;20194;-84
2023/03/15 10:33:21;;;;;;;0.90;0.87;;;10.10;75.90;11.70;96284.00;;;;5027394;28;20232;-83
2023/03/15 10:36:17;;;;;;;6.63;3.33;;;10.10;75.90;11.90;96251.00;;;;5026235;28;20201;-86
2023/03/15 10:39:06;;;;;;;3.73;1.73;;;10.20;75.10;11.40;96285.00;;;;5025086;28;20208;-85
2023/03/15 10:41:56;;;;;;;1.27;0.60;;;10.20;74.60;10.40;96287.00;;;;5028698;28;20200;-86
2023/03/15 10:44:45;;;;;;;0.80;0.40;;;10.00;71.40;10.90;96292.00;;;;5033380;28;20636;-85
2023/03/15 10:47:41;;;;;;;0.50;0.50;;;9.80;70.10;10.70;96276.00;;;;5031030;28;20197;-85
2023/03/15 10:50:40;;;;;;;0.57;0.30;;;9.90;67.90;10.80;96276.00;;;;5033058;28;20209;-85
2023/03/15 10:53:29;;;;;;;0.20;0.20;;;9.90;67.60;11.90;96276.00;;;;5032268;28;20299;-85
2023/03/15 10:56:25;;;;;;;0.20;0.20;;;10.00;68.40;13.30;96299.00;;;;5026772;28;20575;-85
2023/03/15 10:59:23;;;;;;;0.30;0.30;;;10.50;69.00;13.50;96307.00;;;;5029987;28;20202;-84
2023/03/15 11:02:25;;;;;;;1.07;0.30;;;11.20;66.40;12.30;96268.00;;;;5030551;28;20201;-88
2023/03/15 11:05:18;;;;;;;0.30;0.30;;;11.60;63.90;12.10;96250.00;;;;5031396;28;20204;-85
2023/03/15 11:08:14;;;;;;;0.40;0.30;;;11.40;61.60;12.00;96275.00;;;;5026998;28;20212;-85
2023/03/15 11:11:03;;;;;;;0.27;0.27;;;11.20;60.70;10.70;96290.00;;;;5030797;28;20272;-85
2023/03/15 11:14:00;;;;;;;0.73;0.30;;;11.00;58.20;11.40;96308.00;;;;5030698;28;20764;-86
2023/03/15 11:16:54;;;;;;;0.20;0.20;;;10.60;60.10;11.70;96278.00;;;;5025937;28;20501;-85
2023/03/15 11:19:54;;;;;;;0.20;0.20;;;10.60;59.20;13.10;96326.00;;;;5030476;28;20225;-85
2023/03/15 11:22:43;;;;;;;0.53;0.40;;;10.90;61.10;11.80;96300.00;;;;5028149;28;20221;-86
2023/03/15 11:25:34;;;;;;;0.50;0.30;;;11.00;58.80;11.40;96313.00;;;;5029543;28;20197;-87
2023/03/15 11:28:26;;;;;;;0.50;0.33;;;10.60;58.70;11.80;96282.00;;;;5027364;28;20194;-87
2023/03/15 11:31:16;;;;;;;0.40;0.40;;;10.60;58.80;11.60;96261.00;;;;5025049;28;20380;-90
2023/03/15 11:34:13;;;;;;;0.30;0.30;;;10.90;59.00;11.40;96253.00;;;;5026230;28;20221;-89
2023/03/15 11:37:10;;;;;;;0.40;0.37;;;11.00;58.10;12.00;96306.00;;;;5024810;28;20216;-87
2023/03/15 11:40:04;;;;;;;0.40;0.40;;;11.00;58.30;10.60;96338.00;;;;5037514;28;20228;-90
2023/03/15 11:43:03;;;;;;;0.53;0.40;;;10.60;56.20;9.80;96335.00;;;;5031411;28;20232;-87
2023/03/15 11:46:00;;;;;;;0.83;0.50;;;10.00;56.30;11.30;96316.00;;;;5028010;28;20201;-88
2023/03/15 11:48:53;;;;;;;1.13;0.53;;;10.00;58.50;11.90;96321.00;;;;5025719;28;20717;-86
2023/03/15 11:51:47;;;;;;;0.60;0.40;;;10.20;57.90;9.90;96278.00;;;;5029217;28;20655;-87
2023/03/15 11:54:37;;;;;;;0.93;0.77;;;10.30;56.10;10.20;96274.00;;;;5029187;28;20229;-86
2023/03/15 11:57:44;;;;;;;0.40;0.40;;;10.30;55.50;10.20;96375.00;;;;5029192;28;20212;-86
2023/03/15 12:00:50;;;;;;;1.13;0.47;;;10.10;54.30;10.40;96294.00;;;;5030811;28;20228;-86
2023/03/15 12:03:42;;;;;;;0.67;0.37;;;10.10;55.60;12.50;96308.00;;;;5029950;28;20720;-86
2023/03/15 12:06:40;;;;;;;0.33;0.33;;;10.40;55.10;13.20;96328.00;;;;5024341;28;20208;-85
2023/03/15 12:09:51;;;;;;;1.37;0.43;;;11.00;54.90;13.10;96299.00;;;;5026306;28;20197;-86
2023/03/15 12:12:46;;;;;;;1.67;0.67;;;11.50;53.00;13.60;96301.00;;;;5024277;28;20298;-88
2023/03/15 12:15:45;;;;;;;1.13;0.67;;;11.90;52.60;14.20;96335.00;;;;5028410;28;20797;-85
2023/03/15 12:18:42;;;;;;;0.77;0.40;;;12.20;52.30;13.00;96314.00;;;;5030354;28;20221;-86
2023/03/15 12:21:34;;;;;;;0.73;0.70;;;12.30;51.10;13.10;96344.00;;;;5020837;28;20610;-85
2023/03/15 12:24:26;;;;;;;1.40;0.80;;;12.00;51.90;10.40;96306.00;;;;5028290;28;20587;-88
2023/03/15 12:27:19;;;;;;;0.80;0.50;;;11.60;50.60;11.20;96344.00;;;;5030147;28;20402;-84
2023/03/15 12:30:22;;;;;;;0.57;0.57;;;10.80;52.40;11.70;96370.00;;;;5024878;28;20560;-84
2023/03/15 12:33:16;;;;;;;0.60;0.60;;;10.70;52.30;9.70;96330.00;;;;5025985;28;20225;-86
2023/03/15 12:36:18;;;;;;;2.07;0.47;;;10.10;51.60;9.40;96344.00;;;;5028849;28;20674;-86
2023/03/15 12:39:25;;;;;;;0.83;0.57;;;9.60;51.40;9.60;96352.00;;;;5025630;28;20684;-86
2023/03/15 12:42:48;;;;;;;0.40;0.30;;;9.00;52.80;11.50;96332.00;;;;5028059;28;20385;-86
2023/03/15 12:45:45;;;;;;;0.93;0.60;;;9.40;53.10;11.90;96355.00;;;;5027714;28;20212;-86
2023/03/15 12:48:34;;;;;;;1.23;0.47;;;9.90;52.20;10.70;96364.00;;;;5030148;28;20193;-85
2023/03/15 12:51:45;;;;;;;1.47;0.70;;;10.00;51.80;11.80;96361.00;;;;5026937;28;20201;-85
2023/03/15 12:54:43;;;;;;;0.83;0.50;;;10.10;52.80;11.00;96371.00;;;;5025127;28;20232;-85